Country
Station

 

Weather  for  New Orleans, Naval Air Station  -  United States    United States

  
16 °C (61 °F)
    
 
 

Current METAR for New Orleans, Naval Air Station is :

KNBG 191355Z 08013KT 10SM OVC020 16/12 A3010 RMK AO2 SLP193 T01560117 $

 

This is a report for New Orleans, Naval Air Station - United States.
 
The report was made 16 minutes ago, at 13:55 UTC .
The wind was blowing at a speed of 6.7 meters per second (15.0 miles per hour) from east (080°).
 
The temperature was 16 °C (61 °F), with a dew-point at 12 °C (54 °F).
The atmospheric pressure was 1019 hPa (30.10 inHg).
The relative humidity was 77.1%.
 
The sky was overcast from a height of 610 meter (2000 feet)
 
The overall visibility was 16.1 kilometers (10.0 miles).
 

 
 
 
 

Country :   A   B   C   D   E   F   G   H   I   J   K   L   M   N   O   P   Q   R   S   T   U   V   W   Y   Z

 

Site Info  |  Disclaimer  |  Credits  |  Privacy
Contact us  |  Add to favorites
© 2013-2019 METARs - All rights reserved